createdAt,value
2017-08-12T00:00:43.948Z,81.67
2017-08-12T00:01:58.106Z,82.15
2017-08-12T00:02:59.992Z,82.78
2017-08-12T00:04:01.881Z,82.68
2017-08-12T00:05:03.765Z,83.26
2017-08-12T00:06:05.593Z,82.97
2017-08-12T00:07:07.409Z,83.36
2017-08-12T00:08:09.303Z,83.45
2017-08-12T00:09:11.192Z,83.45
2017-08-12T00:10:13.088Z,83.93
2017-08-12T00:11:27.247Z,84.12
2017-08-12T00:12:29.131Z,84.31
2017-08-12T00:13:31.044Z,84.12
2017-08-12T00:14:32.911Z,83.98
2017-08-12T00:15:34.733Z,83.80
2017-08-12T00:16:36.565Z,84.66
2017-08-12T00:17:38.449Z,84.95
2017-08-12T00:18:40.340Z,84.95
2017-08-12T00:19:42.225Z,85.33
2017-08-12T00:20:56.383Z,85.00
2017-08-12T00:21:58.269Z,85.58
2017-08-12T00:23:00.158Z,85.38
2017-08-12T00:24:02.040Z,85.48
2017-08-12T00:25:03.862Z,85.48
2017-08-12T00:26:05.683Z,85.58
2017-08-12T00:27:07.569Z,86.05
2017-08-12T00:28:09.456Z,86.15
2017-08-12T00:29:11.350Z,86.49
2017-08-12T00:30:25.508Z,87.26
2017-08-12T00:31:27.393Z,87.93
2017-08-12T00:32:29.289Z,87.93
2017-08-12T00:33:31.174Z,87.93
2017-08-12T00:34:33.004Z,88.12
2017-08-12T00:35:34.836Z,87.35
2017-08-12T00:36:36.720Z,86.97
2017-08-12T00:37:38.608Z,86.97
2017-08-12T00:38:40.494Z,87.01
2017-08-12T00:39:54.650Z,87.40
2017-08-12T00:40:56.537Z,87.40
2017-08-12T00:41:58.427Z,87.49
2017-08-12T00:43:00.308Z,87.59
2017-08-12T00:44:02.130Z,87.40
2017-08-12T00:45:03.961Z,87.11
2017-08-12T00:46:05.848Z,86.63
2017-08-12T00:47:07.733Z,86.82
2017-08-12T00:48:09.630Z,86.92
2017-08-12T00:49:23.816Z,86.82
2017-08-12T00:50:25.698Z,87.01
2017-08-12T00:51:27.587Z,86.54
2017-08-12T00:52:29.468Z,86.34
2017-08-12T00:53:31.300Z,86.44
2017-08-12T00:54:33.132Z,86.44
2017-08-12T00:55:35.016Z,86.72
2017-08-12T00:56:36.902Z,86.82
2017-08-12T00:57:38.788Z,86.82
2017-08-12T00:58:52.947Z,86.54
2017-08-12T00:59:54.832Z,86.54
2017-08-12T01:00:56.722Z,86.72
2017-08-12T01:01:58.619Z,86.92
2017-08-12T01:03:00.440Z,86.54
2017-08-12T01:04:02.271Z,86.54
2017-08-12T01:05:04.158Z,86.72
2017-08-12T01:06:06.045Z,86.63
2017-08-12T01:07:07.931Z,86.54
2017-08-12T01:08:22.087Z,86.72
2017-08-12T01:09:23.974Z,86.72
2017-08-12T01:10:25.862Z,86.92
2017-08-12T01:11:27.747Z,87.01
2017-08-12T01:12:29.567Z,86.92
2017-08-12T01:13:31.395Z,86.82
2017-08-12T01:14:33.292Z,86.72
2017-08-12T01:15:35.181Z,86.72
2017-08-12T01:16:37.078Z,86.72
2017-08-12T01:17:51.235Z,86.82
2017-08-12T01:18:53.118Z,86.54
2017-08-12T01:19:55.007Z,86.72
2017-08-12T01:20:56.891Z,86.63
2017-08-12T01:21:58.711Z,86.77
2017-08-12T01:23:00.543Z,86.15
2017-08-12T01:24:02.389Z,85.86
2017-08-12T01:25:04.209Z,86.15
2017-08-12T01:26:06.056Z,86.82
2017-08-12T01:27:20.213Z,87.01
2017-08-12T01:28:22.094Z,87.68
2017-08-12T01:29:23.990Z,87.40
2017-08-12T01:30:25.876Z,87.59
2017-08-12T01:31:27.710Z,87.68
2017-08-12T01:32:29.541Z,87.49
2017-08-12T01:33:31.427Z,87.40
2017-08-12T01:34:33.314Z,87.59
2017-08-12T01:35:35.159Z,87.26
2017-08-12T01:36:49.326Z,87.64
2017-08-12T01:37:51.211Z,87.93
2017-08-12T01:38:53.109Z,87.88
2017-08-12T01:39:54.995Z,87.93
2017-08-12T01:40:56.813Z,88.12
2017-08-12T01:41:58.632Z,88.08
2017-08-12T01:43:00.518Z,87.93
2017-08-12T01:44:02.404Z,88.41
2017-08-12T01:45:04.289Z,88.02
2017-08-12T01:46:18.447Z,87.88
2017-08-12T01:47:20.330Z,88.27
2017-08-12T01:48:22.215Z,88.84
2017-08-12T01:49:24.110Z,88.65
2017-08-12T01:50:25.926Z,88.37
2017-08-12T01:51:27.749Z,88.84
2017-08-12T01:52:29.637Z,89.32
2017-08-12T01:53:31.516Z,88.94
2017-08-12T01:54:33.407Z,89.04
2017-08-12T01:55:47.557Z,89.42
2017-08-12T01:56:49.451Z,89.32
2017-08-12T01:57:51.334Z,88.84
2017-08-12T01:58:53.229Z,88.75
2017-08-12T01:59:55.058Z,88.46
2017-08-12T02:00:56.877Z,88.27
2017-08-12T02:01:58.770Z,88.94
2017-08-12T02:03:00.654Z,88.56
2017-08-12T02:04:02.535Z,88.56
2017-08-12T02:05:16.696Z,88.75
2017-08-12T02:06:18.589Z,88.94
2017-08-12T02:07:20.474Z,88.70
2017-08-12T02:08:22.356Z,88.12
2017-08-12T02:09:24.184Z,87.93
2017-08-12T02:10:26.003Z,88.02
2017-08-12T02:11:27.895Z,88.02
2017-08-12T02:12:29.781Z,87.64
2017-08-12T02:13:31.673Z,87.64
2017-08-12T02:14:45.837Z,87.11
2017-08-12T02:15:47.730Z,87.01
2017-08-12T02:16:49.616Z,87.01
2017-08-12T02:17:51.500Z,86.44
2017-08-12T02:18:53.317Z,86.44
2017-08-12T02:19:55.135Z,86.25
2017-08-12T02:20:57.017Z,85.86
2017-08-12T02:21:58.909Z,85.67
2017-08-12T02:23:00.799Z,86.05
2017-08-12T02:24:14.961Z,85.77
2017-08-12T02:25:16.839Z,84.81
2017-08-12T02:26:18.723Z,85.10
2017-08-12T02:27:20.602Z,85.28
2017-08-12T02:28:22.424Z,85.00
2017-08-12T02:29:24.243Z,85.28
2017-08-12T02:30:26.123Z,85.19
2017-08-12T02:31:28.011Z,85.38
2017-08-12T02:32:29.905Z,84.81
2017-08-12T02:33:44.056Z,85.00
2017-08-12T02:34:45.939Z,85.38
2017-08-12T02:35:47.823Z,85.38
2017-08-12T02:36:49.708Z,85.00
2017-08-12T02:37:51.525Z,85.19
2017-08-12T02:38:53.544Z,85.28
2017-08-12T02:39:55.424Z,85.28
2017-08-12T02:40:57.318Z,85.10
2017-08-12T02:41:59.203Z,85.38
2017-08-12T02:43:13.355Z,85.28
2017-08-12T02:44:15.233Z,85.28
2017-08-12T02:45:17.113Z,85.38
2017-08-12T02:46:19.004Z,84.81
2017-08-12T02:47:20.823Z,85.28
2017-08-12T02:48:22.645Z,85.33
2017-08-12T02:49:24.525Z,84.56
2017-08-12T02:50:26.417Z,85.14
2017-08-12T02:51:28.295Z,85.00
2017-08-12T02:52:42.456Z,85.14
2017-08-12T02:53:44.333Z,84.71
2017-08-12T02:54:46.216Z,84.52
2017-08-12T02:55:48.095Z,84.91
2017-08-12T02:56:49.915Z,85.67
2017-08-12T02:57:51.736Z,85.10
2017-08-12T02:58:53.623Z,85.28
2017-08-12T02:59:55.513Z,85.19
2017-08-12T03:00:57.391Z,84.71
2017-08-12T03:02:11.553Z,85.38
2017-08-12T03:03:13.442Z,84.91
2017-08-12T03:04:15.323Z,84.81
2017-08-12T03:05:17.204Z,84.95
2017-08-12T03:06:19.020Z,84.81
2017-08-12T03:07:20.850Z,84.75
2017-08-12T03:08:22.730Z,84.81
2017-08-12T03:09:24.609Z,84.75
2017-08-12T03:10:26.485Z,85.04
2017-08-12T03:11:40.637Z,84.47
2017-08-12T03:12:42.525Z,84.18
2017-08-12T03:13:44.410Z,84.08
2017-08-12T03:14:46.289Z,84.18
2017-08-12T03:15:48.107Z,84.66
2017-08-12T03:16:49.930Z,84.66
2017-08-12T03:17:51.804Z,84.47
2017-08-12T03:18:53.685Z,84.56
2017-08-12T03:19:55.572Z,84.56
2017-08-12T03:21:09.724Z,84.56
2017-08-12T03:22:11.612Z,84.75
2017-08-12T03:23:13.504Z,85.14
2017-08-12T03:24:15.384Z,85.04
2017-08-12T03:25:17.212Z,84.47
2017-08-12T03:26:19.033Z,84.47
2017-08-12T03:27:20.924Z,84.08
2017-08-12T03:28:22.807Z,84.56
2017-08-12T03:29:24.685Z,84.47
2017-08-12T03:30:38.839Z,84.56
2017-08-12T03:31:40.714Z,84.47
2017-08-12T03:32:42.598Z,84.91
2017-08-12T03:33:44.489Z,85.86
2017-08-12T03:34:46.307Z,85.10
2017-08-12T03:35:48.142Z,85.38
2017-08-12T03:36:50.033Z,85.28
2017-08-12T03:37:51.916Z,85.10
2017-08-12T03:38:53.800Z,85.77
2017-08-12T03:40:07.965Z,86.05
2017-08-12T03:41:09.845Z,86.01
2017-08-12T03:42:11.728Z,85.72
2017-08-12T03:43:13.619Z,86.40
2017-08-12T03:44:15.439Z,85.82
2017-08-12T03:45:17.261Z,85.63
2017-08-12T03:46:19.153Z,85.92
2017-08-12T03:47:21.036Z,85.34
2017-08-12T03:48:22.921Z,85.53
2017-08-12T03:49:37.076Z,85.25
2017-08-12T03:50:38.956Z,85.25
2017-08-12T03:51:40.840Z,84.67
2017-08-12T03:52:42.731Z,85.15
2017-08-12T03:53:44.558Z,84.58
2017-08-12T03:54:46.379Z,84.77
2017-08-12T03:55:48.261Z,85.05
2017-08-12T03:56:50.140Z,84.95
2017-08-12T03:57:52.033Z,84.38
2017-08-12T03:59:06.200Z,84.95
2017-08-12T04:00:08.079Z,85.25
2017-08-12T04:01:09.973Z,85.25
2017-08-12T04:02:11.854Z,84.86
2017-08-12T04:03:13.686Z,84.86
2017-08-12T04:04:15.507Z,85.05
2017-08-12T04:05:17.398Z,84.48
2017-08-12T04:06:19.284Z,84.09
2017-08-12T04:07:21.175Z,84.48
2017-08-12T04:08:35.338Z,84.00
2017-08-12T04:09:37.221Z,84.38
2017-08-12T04:10:39.105Z,84.28
2017-08-12T04:11:40.999Z,84.19
2017-08-12T04:12:42.822Z,84.00
2017-08-12T04:13:44.643Z,84.34
2017-08-12T04:14:46.536Z,84.05
2017-08-12T04:15:48.431Z,84.53
2017-08-12T04:16:50.312Z,84.19
2017-08-12T04:18:04.481Z,83.95
2017-08-12T04:19:06.363Z,84.58
2017-08-12T04:20:08.248Z,84.05
2017-08-12T04:21:10.130Z,84.82
2017-08-12T04:22:11.964Z,84.63
2017-08-12T04:23:13.785Z,84.53
2017-08-12T04:24:15.681Z,84.63
2017-08-12T04:25:17.568Z,85.01
2017-08-12T04:26:19.447Z,84.44
2017-08-12T04:27:33.666Z,84.72
2017-08-12T04:28:35.549Z,84.72
2017-08-12T04:29:37.433Z,84.44
2017-08-12T04:30:39.316Z,84.53
2017-08-12T04:31:41.149Z,84.44
2017-08-12T04:32:42.972Z,84.38
2017-08-12T04:33:44.866Z,84.53
2017-08-12T04:34:46.759Z,84.19
2017-08-12T04:35:48.639Z,84.00
2017-08-12T04:37:02.810Z,84.28
2017-08-12T04:38:04.686Z,83.91
2017-08-12T04:39:06.575Z,84.19
2017-08-12T04:40:08.457Z,84.00
2017-08-12T04:41:10.293Z,83.52
2017-08-12T04:42:12.128Z,83.33
2017-08-12T04:43:14.020Z,83.42
2017-08-12T04:44:15.918Z,83.23
2017-08-12T04:45:17.800Z,83.42
2017-08-12T04:46:32.016Z,83.09
2017-08-12T04:47:33.897Z,83.00
2017-08-12T04:48:35.790Z,83.29
2017-08-12T04:49:37.686Z,83.19
2017-08-12T04:50:39.512Z,83.09
2017-08-12T04:51:41.336Z,83.09
2017-08-12T04:52:43.218Z,83.14
2017-08-12T04:53:45.104Z,83.04
2017-08-12T04:54:46.986Z,82.85
2017-08-12T04:56:01.152Z,83.33
2017-08-12T04:57:03.034Z,82.94
2017-08-12T04:58:04.930Z,82.37
2017-08-12T04:59:06.811Z,81.98
2017-08-12T05:00:08.636Z,81.74
2017-08-12T05:01:10.458Z,81.26
2017-08-12T05:02:12.354Z,81.07
2017-08-12T05:03:14.238Z,80.49
2017-08-12T05:04:16.132Z,80.15
2017-08-12T05:05:30.288Z,80.15
2017-08-12T05:06:32.169Z,79.38
2017-08-12T05:07:34.070Z,79.28
2017-08-12T05:08:35.955Z,79.32
2017-08-12T05:09:37.776Z,79.22
2017-08-12T05:10:39.603Z,78.45
2017-08-12T05:11:41.495Z,77.73
2017-08-12T05:12:43.382Z,76.77
2017-08-12T05:13:45.265Z,76.00
2017-08-12T05:14:59.427Z,75.90
2017-08-12T05:16:01.305Z,76.29
2017-08-12T05:17:03.192Z,76.44
2017-08-12T05:18:05.089Z,77.11
2017-08-12T05:19:06.910Z,77.11
2017-08-12T05:20:08.735Z,76.92
2017-08-12T05:21:10.618Z,78.17
2017-08-12T05:22:12.509Z,77.69
2017-08-12T05:23:14.390Z,78.45
2017-08-12T05:24:28.548Z,78.17
2017-08-12T05:25:30.444Z,78.08
2017-08-12T05:26:32.330Z,78.17
2017-08-12T05:27:34.216Z,78.32
2017-08-12T05:28:36.039Z,78.70
2017-08-12T05:29:37.871Z,78.96
2017-08-12T05:30:39.753Z,79.82
2017-08-12T05:31:41.648Z,80.20
2017-08-12T05:32:43.530Z,79.82
2017-08-12T05:33:57.690Z,79.82
2017-08-12T05:34:59.592Z,79.82
2017-08-12T05:36:01.468Z,80.64
2017-08-12T05:37:03.352Z,80.97
2017-08-12T05:38:05.186Z,81.02
2017-08-12T05:39:07.016Z,81.51
2017-08-12T05:40:08.898Z,81.60
2017-08-12T05:41:10.784Z,81.98
2017-08-12T05:42:12.665Z,81.79
2017-08-12T05:43:26.834Z,81.66
2017-08-12T05:44:28.726Z,82.42
2017-08-12T05:45:30.612Z,82.32
2017-08-12T05:46:32.496Z,81.66
2017-08-12T05:47:34.320Z,82.32
2017-08-12T05:48:36.145Z,82.14
2017-08-12T05:49:38.027Z,81.95
2017-08-12T05:50:39.922Z,81.37
2017-08-12T05:51:41.809Z,80.99
2017-08-12T05:52:56.015Z,80.79
2017-08-12T05:53:57.899Z,80.12
2017-08-12T05:54:59.793Z,79.83
2017-08-12T05:56:01.690Z,80.03
2017-08-12T05:57:03.516Z,80.07
2017-08-12T05:58:05.340Z,80.07
2017-08-12T05:59:07.235Z,79.97
2017-08-12T06:00:09.131Z,79.97
2017-08-12T06:01:11.018Z,79.49
2017-08-12T06:02:25.174Z,79.05
2017-08-12T06:03:27.059Z,78.57
2017-08-12T06:04:28.949Z,78.19
2017-08-12T06:05:30.833Z,78.28
2017-08-12T06:06:32.669Z,78.09
2017-08-12T06:07:34.495Z,77.61
2017-08-12T06:08:36.378Z,77.80
2017-08-12T06:09:38.275Z,77.90
2017-08-12T06:10:40.157Z,77.51
2017-08-12T06:11:54.329Z,75.79
2017-08-12T06:12:56.209Z,75.31
2017-08-12T06:13:58.105Z,76.27
2017-08-12T06:14:59.990Z,75.85
2017-08-12T06:16:01.814Z,77.09
2017-08-12T06:17:03.640Z,77.38
2017-08-12T06:18:05.536Z,77.19
2017-08-12T06:19:07.433Z,76.84
2017-08-12T06:20:09.319Z,75.89
2017-08-12T06:21:23.476Z,75.70
2017-08-12T06:22:25.359Z,75.40
2017-08-12T06:23:27.254Z,75.40
2017-08-12T06:24:29.138Z,75.60
2017-08-12T06:25:30.964Z,75.54
2017-08-12T06:26:32.790Z,74.52
2017-08-12T06:27:34.673Z,73.75
2017-08-12T06:28:36.561Z,72.73
2017-08-12T06:29:38.448Z,72.64
2017-08-12T06:30:52.606Z,71.81
2017-08-12T06:31:54.491Z,70.75
2017-08-12T06:32:56.381Z,70.40
2017-08-12T06:33:58.268Z,69.73
2017-08-12T06:35:00.093Z,69.63
2017-08-12T06:36:01.916Z,68.76
2017-08-12T06:37:03.802Z,68.19
2017-08-12T06:38:05.686Z,68.48
2017-08-12T06:39:07.572Z,68.51
2017-08-12T06:40:21.731Z,68.41
2017-08-12T06:41:23.617Z,67.71
2017-08-12T06:42:25.504Z,67.03
2017-08-12T06:43:27.404Z,67.51
2017-08-12T06:44:29.228Z,68.29
2017-08-12T06:45:31.066Z,68.35
2017-08-12T06:46:32.950Z,68.44
2017-08-12T06:47:34.847Z,68.92
2017-08-12T06:48:36.733Z,69.79
2017-08-12T06:49:50.893Z,69.66
2017-08-12T06:50:52.789Z,70.62
2017-08-12T06:51:54.685Z,70.52
2017-08-12T06:52:56.575Z,70.81
2017-08-12T06:53:58.401Z,71.10
2017-08-12T06:55:00.228Z,71.19
2017-08-12T06:56:02.112Z,71.10
2017-08-12T06:57:03.998Z,71.52
2017-08-12T06:58:05.881Z,70.94
2017-08-12T06:59:20.098Z,69.98
2017-08-12T07:00:21.980Z,69.73
2017-08-12T07:01:23.876Z,68.35
2017-08-12T07:02:25.765Z,67.96
2017-08-12T07:03:27.586Z,68.54
2017-08-12T07:04:29.422Z,68.83
2017-08-12T07:05:31.306Z,69.31
2017-08-12T07:06:33.197Z,69.89
2017-08-12T07:07:35.077Z,69.98
2017-08-12T07:08:49.248Z,70.07
2017-08-12T07:09:51.131Z,70.14
2017-08-12T07:10:53.018Z,70.14
2017-08-12T07:11:54.912Z,69.75
2017-08-12T07:12:56.737Z,69.95
2017-08-12T07:13:58.578Z,70.14
2017-08-12T07:15:00.461Z,70.17
2017-08-12T07:16:02.349Z,69.89
2017-08-12T07:17:04.233Z,69.98
2017-08-12T07:18:18.392Z,70.33
2017-08-12T07:19:20.275Z,69.95
2017-08-12T07:20:22.163Z,70.14
2017-08-12T07:21:24.048Z,70.43
2017-08-12T07:22:25.873Z,70.81
2017-08-12T07:23:27.700Z,71.39
2017-08-12T07:24:29.586Z,71.45
2017-08-12T07:25:31.472Z,71.93
2017-08-12T07:26:33.357Z,72.69
2017-08-12T07:27:47.513Z,72.99
2017-08-12T07:28:49.396Z,73.08
2017-08-12T07:29:51.290Z,73.56
2017-08-12T07:30:53.185Z,73.91
2017-08-12T07:31:55.024Z,74.10
2017-08-12T07:32:56.853Z,74.39
2017-08-12T07:33:58.735Z,74.87
2017-08-12T07:35:00.637Z,74.87
2017-08-12T07:36:02.520Z,75.06
2017-08-12T07:37:16.680Z,74.96
2017-08-12T07:38:18.574Z,73.91
2017-08-12T07:39:20.462Z,72.95
2017-08-12T07:40:22.355Z,72.75
2017-08-12T07:41:24.192Z,73.24
2017-08-12T07:42:26.017Z,73.62
2017-08-12T07:43:27.984Z,73.91
2017-08-12T07:44:29.866Z,74.01
2017-08-12T07:45:31.750Z,73.91
2017-08-12T07:46:45.912Z,74.01
2017-08-12T07:47:47.796Z,73.94
2017-08-12T07:48:49.685Z,73.27
2017-08-12T07:49:51.574Z,73.75
2017-08-12T07:50:53.407Z,73.72
2017-08-12T07:51:55.225Z,74.10
2017-08-12T07:52:57.120Z,74.10
2017-08-12T07:53:59.009Z,74.13
2017-08-12T07:55:00.904Z,73.75
2017-08-12T07:56:15.077Z,73.27
2017-08-12T07:57:16.958Z,72.92
2017-08-12T07:58:18.859Z,72.44
2017-08-12T07:59:20.762Z,72.83
2017-08-12T08:00:22.599Z,72.58
2017-08-12T08:01:24.446Z,72.29
2017-08-12T08:02:26.312Z,71.33
2017-08-12T08:03:28.205Z,70.59
2017-08-12T08:04:30.084Z,70.11
2017-08-12T08:05:44.246Z,70.68
2017-08-12T08:06:46.146Z,70.05
2017-08-12T08:07:48.058Z,69.28
2017-08-12T08:08:49.929Z,68.44
2017-08-12T08:09:51.757Z,67.71
2017-08-12T08:10:53.583Z,67.52
2017-08-12T08:11:55.470Z,66.88
2017-08-12T08:12:57.700Z,66.39
2017-08-12T08:13:59.524Z,64.79
2017-08-12T08:15:13.700Z,63.95
2017-08-12T08:16:15.594Z,62.89
2017-08-12T08:17:17.490Z,61.47
2017-08-12T08:18:19.379Z,60.89
2017-08-12T08:19:21.227Z,60.89
2017-08-12T08:20:23.053Z,60.41
2017-08-12T08:21:24.942Z,60.22
2017-08-12T08:22:26.834Z,59.93
2017-08-12T08:23:28.722Z,59.16
2017-08-12T08:24:42.884Z,59.52
2017-08-12T08:25:44.771Z,60.48
2017-08-12T08:26:46.664Z,59.23
2017-08-12T08:27:48.554Z,59.32
2017-08-12T08:28:50.461Z,59.25
2017-08-12T08:29:52.310Z,58.87
2017-08-12T08:30:54.196Z,57.90
2017-08-12T08:31:56.087Z,58.26
2017-08-12T08:32:58.021Z,58.17
2017-08-12T08:34:12.161Z,59.39
2017-08-12T08:35:14.053Z,60.13
2017-08-12T08:36:15.997Z,61.29
2017-08-12T08:37:17.901Z,61.32
2017-08-12T08:38:19.738Z,61.41
2017-08-12T08:39:21.574Z,60.58
2017-08-12T08:40:23.502Z,60.86
2017-08-12T08:41:25.757Z,60.19
2017-08-12T08:42:27.629Z,60.22
2017-08-12T08:43:41.797Z,59.35
2017-08-12T08:44:43.686Z,59.25
2017-08-12T08:45:45.594Z,58.68
2017-08-12T08:46:47.483Z,59.16
2017-08-12T08:47:49.314Z,59.25
2017-08-12T08:48:51.155Z,59.28
2017-08-12T08:49:53.042Z,58.83
2017-08-12T08:50:54.930Z,58.15
2017-08-12T08:51:56.820Z,57.31
2017-08-12T08:53:11.013Z,57.05
2017-08-12T08:54:12.901Z,56.28
2017-08-12T08:55:14.791Z,55.70
2017-08-12T08:56:16.681Z,55.51
2017-08-12T08:57:18.508Z,55.53
2017-08-12T08:58:20.337Z,55.43
2017-08-12T08:59:22.228Z,55.43
2017-08-12T09:00:24.115Z,55.43
2017-08-12T09:01:26.027Z,55.34
2017-08-12T09:02:40.174Z,55.34
2017-08-12T09:03:42.077Z,54.85
2017-08-12T09:04:43.966Z,54.83
2017-08-12T09:05:45.888Z,55.31
2017-08-12T09:06:47.717Z,55.51
2017-08-12T09:07:49.539Z,54.68
2017-08-12T09:08:51.432Z,55.16
2017-08-12T09:09:53.322Z,55.33
2017-08-12T09:10:55.209Z,56.84
2017-08-12T09:12:09.395Z,57.04
2017-08-12T09:13:11.304Z,57.23
2017-08-12T09:14:13.189Z,57.26
2017-08-12T09:15:15.102Z,57.84
2017-08-12T09:16:16.934Z,56.77
2017-08-12T09:17:18.760Z,56.58
2017-08-12T09:18:20.650Z,57.04
2017-08-12T09:19:22.541Z,58.07
2017-08-12T09:20:24.458Z,58.94
2017-08-12T09:21:38.629Z,59.00
2017-08-12T09:22:40.516Z,60.35
2017-08-12T09:23:42.423Z,60.90
2017-08-12T09:24:44.307Z,61.74
2017-08-12T09:25:46.154Z,61.93
2017-08-12T09:26:47.980Z,62.29
2017-08-12T09:27:50.147Z,62.96
2017-08-12T09:28:52.014Z,62.77
2017-08-12T09:29:53.906Z,62.60
2017-08-12T09:31:08.068Z,62.99
2017-08-12T09:32:09.957Z,62.70
2017-08-12T09:33:11.848Z,62.32
2017-08-12T09:34:13.735Z,62.12
2017-08-12T09:35:15.565Z,62.70
2017-08-12T09:36:17.391Z,63.06
2017-08-12T09:37:19.289Z,63.92
2017-08-12T09:38:21.191Z,64.02
2017-08-12T09:39:23.088Z,63.54
2017-08-12T09:40:37.229Z,64.37
2017-08-12T09:41:39.129Z,64.86
2017-08-12T09:42:41.027Z,65.05
2017-08-12T09:43:42.909Z,66.27
2017-08-12T09:44:44.766Z,67.29
2017-08-12T09:45:46.577Z,67.68
2017-08-12T09:46:48.468Z,67.51
2017-08-12T09:47:50.379Z,68.19
2017-08-12T09:48:52.268Z,68.67
2017-08-12T09:50:06.443Z,68.38
2017-08-12T09:51:08.333Z,68.19
2017-08-12T09:52:10.234Z,67.80
2017-08-12T09:53:12.113Z,68.09
2017-08-12T09:54:13.969Z,68.73
2017-08-12T09:55:15.827Z,69.12
2017-08-12T09:56:17.750Z,69.69
2017-08-12T09:57:19.636Z,69.89
2017-08-12T09:58:21.522Z,69.69
2017-08-12T09:59:35.683Z,69.98
2017-08-12T10:00:37.574Z,70.07
2017-08-12T10:01:39.471Z,69.69
2017-08-12T10:02:41.363Z,69.31
2017-08-12T10:03:43.185Z,69.63
2017-08-12T10:04:45.016Z,69.06
2017-08-12T10:05:46.934Z,69.06
2017-08-12T10:06:48.798Z,68.90
2017-08-12T10:07:50.681Z,68.22
2017-08-12T10:09:04.859Z,68.13
2017-08-12T10:10:06.745Z,67.93
2017-08-12T10:11:08.635Z,67.55
2017-08-12T10:12:10.523Z,67.65
2017-08-12T10:13:12.360Z,67.58
2017-08-12T10:14:14.177Z,67.39
2017-08-12T10:15:16.065Z,67.29
2017-08-12T10:16:17.947Z,67.26
2017-08-12T10:17:19.843Z,66.81
2017-08-12T10:18:34.019Z,66.91
2017-08-12T10:19:35.919Z,66.52
2017-08-12T10:20:37.794Z,66.52
2017-08-12T10:21:39.689Z,66.52
2017-08-12T10:22:41.514Z,66.42
2017-08-12T10:23:43.346Z,66.52
2017-08-12T10:24:45.237Z,66.62
2017-08-12T10:25:47.128Z,66.33
2017-08-12T10:26:49.014Z,66.42
2017-08-12T10:28:03.177Z,66.52
2017-08-12T10:29:05.074Z,66.42
2017-08-12T10:30:06.964Z,66.04
2017-08-12T10:31:08.860Z,66.46
2017-08-12T10:32:10.686Z,66.17
2017-08-12T10:33:12.516Z,65.78
2017-08-12T10:34:14.403Z,65.50
2017-08-12T10:35:16.291Z,64.95
2017-08-12T10:36:18.183Z,64.76
2017-08-12T10:37:32.433Z,64.05
2017-08-12T10:38:34.321Z,64.53
2017-08-12T10:39:36.208Z,64.73
2017-08-12T10:40:38.097Z,65.43
2017-08-12T10:41:39.926Z,64.95
2017-08-12T10:42:41.755Z,64.95
2017-08-12T10:43:43.644Z,64.86
2017-08-12T10:44:45.537Z,64.47
2017-08-12T10:45:47.422Z,64.37
2017-08-12T10:47:01.584Z,64.28
2017-08-12T10:48:03.477Z,64.37
2017-08-12T10:49:05.367Z,64.37
2017-08-12T10:50:07.273Z,64.86
2017-08-12T10:51:09.114Z,64.76
2017-08-12T10:52:10.936Z,64.31
2017-08-12T10:53:12.829Z,64.69
2017-08-12T10:54:14.760Z,63.18
2017-08-12T10:55:16.651Z,62.22
2017-08-12T10:56:31.106Z,62.41
2017-08-12T10:57:32.985Z,62.31
2017-08-12T10:58:34.882Z,62.51
2017-08-12T10:59:36.797Z,61.74
2017-08-12T11:00:38.639Z,62.22
2017-08-12T11:01:40.468Z,62.22
2017-08-12T11:02:42.362Z,61.16
2017-08-12T11:03:44.259Z,61.51
2017-08-12T11:04:46.139Z,61.32
2017-08-12T11:06:00.319Z,61.74
2017-08-12T11:07:02.205Z,60.96
2017-08-12T11:08:04.095Z,60.03
2017-08-12T11:09:05.996Z,59.13
2017-08-12T11:10:07.841Z,59.32
2017-08-12T11:11:09.732Z,59.32
2017-08-12T11:12:11.950Z,58.94
2017-08-12T11:13:13.900Z,58.36
2017-08-12T11:14:15.845Z,58.55
2017-08-12T11:15:30.153Z,59.03
2017-08-12T11:16:32.121Z,58.81
2017-08-12T11:17:34.095Z,59.20
2017-08-12T11:18:36.093Z,60.13
2017-08-12T11:19:38.033Z,60.42
2017-08-12T11:20:39.908Z,59.84
2017-08-12T11:21:41.902Z,59.14
2017-08-12T11:22:43.891Z,59.91
2017-08-12T11:23:46.103Z,59.11
2017-08-12T11:25:00.315Z,60.07
2017-08-12T11:26:02.554Z,60.46
2017-08-12T11:27:04.448Z,60.42
2017-08-12T11:28:06.338Z,61.10
2017-08-12T11:29:08.442Z,62.06
2017-08-12T11:30:10.279Z,62.41
2017-08-12T11:31:12.406Z,62.61
2017-08-12T11:32:14.770Z,63.38
2017-08-12T11:33:16.688Z,63.86
2017-08-12T11:34:30.888Z,63.73
2017-08-12T11:35:32.780Z,64.12
2017-08-12T11:36:34.693Z,64.60
2017-08-12T11:37:36.574Z,64.31
2017-08-12T11:38:38.418Z,64.89
2017-08-12T11:39:40.320Z,64.60
2017-08-12T11:40:42.225Z,64.50
2017-08-12T11:41:44.122Z,64.37
2017-08-12T11:42:46.516Z,64.85
2017-08-12T11:44:00.708Z,65.23
2017-08-12T11:45:02.622Z,65.62
2017-08-12T11:46:04.520Z,65.53
2017-08-12T11:47:06.682Z,65.62
2017-08-12T11:48:08.525Z,65.72
2017-08-12T11:49:11.063Z,66.14
2017-08-12T11:50:13.064Z,66.04
2017-08-12T11:51:15.112Z,66.23
2017-08-12T11:52:17.201Z,66.52
2017-08-12T11:53:31.799Z,66.04
2017-08-12T11:54:34.030Z,66.04
2017-08-12T11:55:36.054Z,66.33
2017-08-12T11:56:38.038Z,66.04
2017-08-12T11:57:39.874Z,66.14
2017-08-12T11:58:41.703Z,65.84
2017-08-12T11:59:43.597Z,66.20
2017-08-12T12:01:48.335Z,66.97
2017-08-12T12:03:02.504Z,67.16
2017-08-12T12:04:04.390Z,67.54
2017-08-12T12:05:06.277Z,66.97
2017-08-12T12:06:08.163Z,66.87
2017-08-12T12:07:09.997Z,66.58
2017-08-12T12:08:11.826Z,66.68
2017-08-12T12:09:13.712Z,67.07
2017-08-12T12:10:15.601Z,67.19
2017-08-12T12:11:17.486Z,65.94
2017-08-12T12:12:31.646Z,65.50
2017-08-12T12:13:33.544Z,65.30
2017-08-12T12:14:35.433Z,64.63
2017-08-12T12:15:37.317Z,64.25
2017-08-12T12:16:39.159Z,64.56
2017-08-12T12:17:40.984Z,63.79
2017-08-12T12:18:42.867Z,63.02
2017-08-12T12:19:44.771Z,62.06
2017-08-12T12:20:46.662Z,62.74
2017-08-12T12:22:00.826Z,62.45
2017-08-12T12:23:02.717Z,62.35
2017-08-12T12:24:04.606Z,62.16
2017-08-12T12:25:06.507Z,61.80
2017-08-12T12:26:08.326Z,61.71
2017-08-12T12:27:10.157Z,61.80
2017-08-12T12:28:12.048Z,61.42
2017-08-12T12:29:13.936Z,61.35
2017-08-12T12:30:15.823Z,60.49
2017-08-12T12:31:30.006Z,59.84
2017-08-12T12:32:31.900Z,59.27
2017-08-12T12:33:33.786Z,58.85
2017-08-12T12:34:35.679Z,59.23
2017-08-12T12:35:37.509Z,58.97
2017-08-12T12:36:39.343Z,58.88
2017-08-12T12:37:41.232Z,58.40
2017-08-12T12:38:43.129Z,57.94
2017-08-12T12:39:45.014Z,57.37
2017-08-12T12:40:59.193Z,57.05
2017-08-12T12:42:01.087Z,56.95
2017-08-12T12:43:02.988Z,57.14
2017-08-12T12:44:04.869Z,57.34
2017-08-12T12:45:06.702Z,57.92
2017-08-12T12:46:08.534Z,56.66
2017-08-12T12:47:10.424Z,55.60
2017-08-12T12:48:12.313Z,55.89
2017-08-12T12:49:14.200Z,55.70
2017-08-12T12:50:28.359Z,55.48
2017-08-12T12:51:30.243Z,56.44
2017-08-12T12:52:32.173Z,56.51
2017-08-12T12:53:34.041Z,56.41
2017-08-12T12:54:35.874Z,57.09
2017-08-12T12:55:37.704Z,58.22
2017-08-12T12:56:39.586Z,58.70
2017-08-12T12:57:41.486Z,59.17
2017-08-12T12:58:43.368Z,59.75
2017-08-12T12:59:57.540Z,59.82
2017-08-12T13:00:59.424Z,59.72
2017-08-12T13:02:01.310Z,60.39
2017-08-12T13:03:03.200Z,60.17
2017-08-12T13:04:05.023Z,60.66
2017-08-12T13:05:06.850Z,61.33
2017-08-12T13:06:08.736Z,61.52
2017-08-12T13:07:10.624Z,62.07
2017-08-12T13:08:12.508Z,62.35
2017-08-12T13:09:26.676Z,62.35
2017-08-12T13:10:28.554Z,62.26
2017-08-12T13:11:30.440Z,61.97
2017-08-12T13:12:32.349Z,62.16
2017-08-12T13:13:34.215Z,62.07
2017-08-12T13:14:36.048Z,62.00
2017-08-12T13:15:37.938Z,62.19
2017-08-12T13:16:39.819Z,62.26
2017-08-12T13:17:41.705Z,62.26
2017-08-12T13:18:55.866Z,62.64
2017-08-12T13:19:57.753Z,62.10
2017-08-12T13:20:59.643Z,62.29
2017-08-12T13:22:01.531Z,62.38
2017-08-12T13:23:03.358Z,61.65
2017-08-12T13:24:05.190Z,61.29
2017-08-12T13:25:07.076Z,61.29
2017-08-12T13:26:08.977Z,60.72
2017-08-12T13:27:10.872Z,60.72
2017-08-12T13:28:25.026Z,60.17
2017-08-12T13:29:26.933Z,60.17
2017-08-12T13:30:28.823Z,60.10
2017-08-12T13:31:30.712Z,59.33
2017-08-12T13:32:32.549Z,59.17
2017-08-12T13:33:34.377Z,58.40
2017-08-12T13:34:36.275Z,57.34
2017-08-12T13:35:38.174Z,57.27